MiSS Donna — WDG2382 — position and weather

sailwx.info

Track history (hours):
 
Tides and Currents Weather Stations Pressure Air Temp Water Temp Dewpoint Dewpoint Depression Visibility Wind Speed Wind Dir Waves Ship Positions

MiSS Donna

Owner: OCEAN MARINE BOAT RENTALS,LLC, MORGAN CITY, LA. More information available from US FCC via Universal Licensing System and Coast Guard Vessel Documentation Center.

Last reported at 2014-Sep-30 12:25 UTC. Time now 2014-Oct-02 00:37 UTC.
Position N 39°13' W 076°35'.

Length 21 m; draft 2.7 m.

Type: Towing. MMSI: 367515090.

Date/timePositionNaut miles runAvg speedWind from/ knotsBaromVisibWave heightAir tempDewpointWater temp
2014-Sep-30 12:25N 39°13' W 076°35'0 0.0
2014-Sep-30 11:04N 39°13' W 076°35'2 0.4
2014-Sep-30 05:33N 39°14' W 076°33'1 1.2
2014-Sep-30 04:33N 39°13' W 076°32'6 5.5
2014-Sep-30 03:32N 39°11' W 076°26'6 5.4
2014-Sep-30 02:26N 39°07' W 076°20'6 4.5
2014-Sep-30 01:11N 39°02' W 076°18'13 0.8
2014-Sep-29 09:33N 38°51' W 076°26'6 5.8
2014-Sep-29 08:31N 38°57' W 076°25'6 6.2
2014-Sep-29 07:32N 39°03' W 076°23'6 6.0
2014-Sep-29 06:30N 39°09' W 076°25'5 5.4
2014-Sep-29 05:33N 39°12' W 076°30'4 4.0
2014-Sep-29 04:33N 39°13' W 076°35'1 0.0
2014-Sep-27 13:11N 39°13' W 076°35'0 0.1
2014-Sep-27 12:33N 39°13' W 076°35'3 3.3
2014-Sep-27 11:34N 39°12' W 076°31'5 5.0
2014-Sep-27 10:33N 39°12' W 076°24'  
2014-Sep-23 01:16N 39°17' W 076°14'5 6.5
2014-Sep-23 00:32N 39°14' W 076°19'6 6.5
2014-Sep-22 23:33N 39°11' W 076°27'6 5.6
2014-Sep-22 22:33N 39°13' W 076°33'1 0.0
2014-Sep-21 00:30N 39°13' W 076°35'0 0.0
2014-Sep-20 23:29N 39°13' W 076°35'0 0.0
2014-Sep-20 14:26N 39°13' W 076°35'  
Track history (hours):
 
Tides and Currents Weather Stations Pressure Air Temp Water Temp Dewpoint Dewpoint Depression Visibility Wind Speed Wind Dir Waves Ship Positions

MiSS Donna

Owner: OCEAN MARINE BOAT RENTALS,LLC, MORGAN CITY, LA. More information available from US FCC via Universal Licensing System and Coast Guard Vessel Documentation Center.

Last reported at 2014-Sep-30 12:25 UTC. Time now 2014-Oct-02 00:37 UTC.
Position N 39°13' W 076°35'.

Length 21 m; draft 2.7 m.

Type: Towing. MMSI: 367515090.

Date/timePositionNaut miles runAvg speedWind from/ knotsBaromVisibWave heightAir tempDewpointWater temp
2014-Sep-30 12:25N 39°13' W 076°35'0 0.0
2014-Sep-30 11:04N 39°13' W 076°35'2 0.4
2014-Sep-30 05:33N 39°14' W 076°33'1 1.2
2014-Sep-30 04:33N 39°13' W 076°32'6 5.5
2014-Sep-30 03:32N 39°11' W 076°26'6 5.4
2014-Sep-30 02:26N 39°07' W 076°20'6 4.5
2014-Sep-30 01:11N 39°02' W 076°18'13 0.8
2014-Sep-29 09:33N 38°51' W 076°26'6 5.8
2014-Sep-29 08:31N 38°57' W 076°25'6 6.2
2014-Sep-29 07:32N 39°03' W 076°23'6 6.0
2014-Sep-29 06:30N 39°09' W 076°25'5 5.4
2014-Sep-29 05:33N 39°12' W 076°30'4 4.0
2014-Sep-29 04:33N 39°13' W 076°35'1 0.0
2014-Sep-27 13:11N 39°13' W 076°35'0 0.1
2014-Sep-27 12:33N 39°13' W 076°35'3 3.3
2014-Sep-27 11:34N 39°12' W 076°31'5 5.0
2014-Sep-27 10:33N 39°12' W 076°24'  
2014-Sep-23 01:16N 39°17' W 076°14'5 6.5
2014-Sep-23 00:32N 39°14' W 076°19'6 6.5
2014-Sep-22 23:33N 39°11' W 076°27'6 5.6
2014-Sep-22 22:33N 39°13' W 076°33'1 0.0
2014-Sep-21 00:30N 39°13' W 076°35'0 0.0
2014-Sep-20 23:29N 39°13' W 076°35'0 0.0
2014-Sep-20 14:26N 39°13' W 076°35'  

Dump ship's entire track history